createdAt,value
2022-08-16T00:00:20.403Z,7.88
2022-08-16T00:05:25.266Z,8.50
2022-08-16T00:10:29.993Z,9.88
2022-08-16T00:15:51.397Z,10.25
2022-08-16T00:20:55.684Z,9.48
2022-08-16T00:26:35.262Z,8.73
2022-08-16T00:31:18.650Z,8.80
2022-08-16T00:36:25.875Z,9.18
2022-08-16T00:41:29.322Z,7.68
2022-08-16T00:46:35.332Z,6.80
2022-08-16T00:51:38.580Z,6.30
2022-08-16T00:56:56.580Z,6.03
2022-08-16T01:02:01.097Z,6.40
2022-08-16T01:07:22.552Z,6.25
2022-08-16T01:12:26.790Z,6.40
2022-08-16T01:17:28.808Z,5.78
2022-08-16T01:22:49.678Z,6.78
2022-08-16T01:27:54.409Z,6.70
2022-08-16T01:33:02.647Z,6.85
2022-08-16T01:38:19.457Z,6.60
2022-08-16T01:43:21.774Z,6.75
2022-08-16T01:48:27.575Z,6.95
2022-08-16T01:53:29.284Z,6.25
2022-08-16T01:58:31.254Z,7.47
2022-08-16T02:03:33.428Z,6.80
2022-08-16T02:08:34.996Z,6.70
2022-08-16T02:13:41.654Z,6.78
2022-08-16T02:18:43.557Z,5.93
2022-08-16T02:23:50.944Z,6.05
2022-08-16T02:33:58.615Z,6.32
2022-08-16T02:44:11.337Z,8.93
2022-08-16T02:49:15.767Z,8.25
2022-08-16T02:54:18.341Z,7.70
2022-08-16T02:59:21.275Z,8.27
2022-08-16T03:04:39.165Z,10.30
2022-08-16T03:09:44.886Z,10.70
2022-08-16T03:14:46.744Z,9.48
2022-08-16T03:19:59.780Z,8.95
2022-08-16T03:25:07.275Z,8.23
2022-08-16T03:30:16.726Z,8.73
2022-08-16T03:35:20.984Z,8.40
2022-08-16T03:40:31.496Z,9.55
2022-08-16T03:45:35.487Z,9.70
2022-08-16T03:50:39.077Z,9.52
2022-08-16T03:55:45.783Z,9.85
2022-08-16T04:00:49.365Z,12.38
2022-08-16T04:06:02.315Z,10.95
2022-08-16T04:11:04.024Z,12.73
2022-08-16T04:16:06.669Z,11.80
2022-08-16T04:21:08.641Z,12.35
2022-08-16T04:26:16.786Z,11.73
2022-08-16T04:31:18.728Z,13.30
2022-08-16T04:36:21.270Z,14.07
2022-08-16T04:41:32.969Z,15.68
2022-08-16T04:47:00.525Z,13.32
2022-08-16T04:52:02.293Z,13.02
2022-08-16T04:57:03.763Z,13.15
2022-08-16T05:02:40.933Z,14.60
2022-08-16T05:07:27.255Z,13.48
2022-08-16T05:12:31.395Z,14.40
2022-08-16T05:17:32.992Z,13.07
2022-08-16T05:22:36.365Z,12.80
2022-08-16T05:27:42.798Z,13.23
2022-08-16T05:32:47.342Z,14.15
2022-08-16T05:37:48.967Z,15.07
2022-08-16T05:42:51.250Z,15.50
2022-08-16T05:48:00.025Z,15.52
2022-08-16T05:53:03.061Z,16.20
2022-08-16T05:58:04.628Z,15.38
2022-08-16T06:03:06.601Z,17.92
2022-08-16T06:08:32.079Z,15.50
2022-08-16T06:13:37.693Z,13.60
2022-08-16T06:18:45.176Z,15.85
2022-08-16T06:23:46.732Z,16.05
2022-08-16T06:28:49.382Z,17.77
2022-08-16T06:33:51.845Z,18.63
2022-08-16T06:38:56.439Z,18.83
2022-08-16T06:43:58.334Z,15.73
2022-08-16T06:49:01.616Z,17.45
2022-08-16T06:54:04.376Z,17.20
2022-08-16T06:59:09.093Z,17.85
2022-08-16T07:04:12.073Z,17.77
2022-08-16T07:09:15.881Z,19.58
2022-08-16T07:14:23.868Z,18.95
2022-08-16T07:20:03.648Z,17.58
2022-08-16T07:24:49.701Z,17.10
2022-08-16T07:29:51.241Z,15.82
2022-08-16T07:34:57.137Z,14.70
2022-08-16T07:39:59.454Z,14.77
2022-08-16T07:45:01.071Z,14.05
2022-08-16T07:50:05.499Z,15.30
2022-08-16T07:55:09.781Z,14.13
2022-08-16T08:00:18.409Z,15.55
2022-08-16T08:05:35.466Z,14.90
2022-08-16T08:10:38.171Z,14.15
2022-08-16T08:15:40.244Z,15.48
2022-08-16T08:20:59.458Z,15.82
2022-08-16T08:26:01.271Z,13.95
2022-08-16T08:31:03.852Z,13.70
2022-08-16T08:36:07.322Z,12.75
2022-08-16T08:41:08.926Z,10.77
2022-08-16T08:46:17.773Z,11.63
2022-08-16T08:51:20.092Z,10.63
2022-08-16T08:56:23.834Z,9.93
2022-08-16T09:01:36.793Z,9.10
2022-08-16T09:06:45.356Z,9.07
2022-08-16T09:11:53.774Z,9.60
2022-08-16T09:17:21.545Z,9.32
2022-08-16T09:22:29.736Z,8.32
2022-08-16T09:27:46.647Z,7.10
2022-08-16T09:32:54.876Z,8.77
2022-08-16T09:38:01.112Z,7.18
2022-08-16T09:43:04.856Z,8.55
2022-08-16T09:48:08.176Z,7.45
2022-08-16T09:53:16.659Z,7.60
2022-08-16T09:58:41.368Z,8.20
2022-08-16T10:04:01.207Z,8.57
2022-08-16T10:09:06.590Z,8.05
2022-08-16T10:14:09.693Z,7.45
2022-08-16T10:19:19.293Z,7.88
2022-08-16T10:24:28.326Z,7.05
2022-08-16T10:29:59.979Z,7.80
2022-08-16T10:34:52.413Z,7.05
2022-08-16T10:39:55.827Z,7.50
2022-08-16T10:44:57.325Z,7.88
2022-08-16T10:49:59.526Z,6.82
2022-08-16T11:00:23.026Z,9.60
2022-08-16T11:05:24.832Z,10.07
2022-08-16T11:15:55.827Z,8.38
2022-08-16T11:20:59.348Z,7.68
2022-08-16T11:26:16.674Z,6.78
2022-08-16T11:31:22.275Z,6.70
2022-08-16T11:36:24.981Z,7.10
2022-08-16T11:41:32.460Z,7.35
2022-08-16T11:46:44.691Z,8.05
2022-08-16T11:51:49.606Z,6.30
2022-08-16T11:56:56.792Z,7.20
2022-08-16T12:02:30.699Z,6.28
2022-08-16T12:07:21.290Z,6.18
2022-08-16T12:12:25.457Z,6.45
2022-08-16T12:17:32.202Z,6.32
2022-08-16T12:22:36.774Z,5.43
2022-08-16T12:27:39.471Z,5.90
2022-08-16T12:32:42.193Z,7.30
2022-08-16T12:37:46.182Z,5.88
2022-08-16T12:42:52.897Z,5.75
2022-08-16T12:48:33.896Z,5.45
2022-08-16T12:53:40.067Z,5.55
2022-08-16T12:58:50.326Z,5.57
2022-08-16T13:04:11.393Z,6.22
2022-08-16T13:09:42.243Z,5.78
2022-08-16T13:14:44.421Z,5.35
2022-08-16T13:25:09.050Z,4.60
2022-08-16T13:30:35.431Z,5.10
2022-08-16T13:35:34.655Z,5.10
2022-08-16T13:40:36.677Z,5.07
2022-08-16T13:45:38.096Z,5.00
2022-08-16T13:50:49.091Z,5.00
2022-08-16T13:55:59.123Z,6.05
2022-08-16T14:01:01.108Z,5.28
2022-08-16T14:06:03.312Z,5.38
2022-08-16T14:11:05.653Z,4.70
2022-08-16T14:16:24.511Z,4.70
2022-08-16T14:21:35.849Z,6.30
2022-08-16T14:26:37.364Z,5.15
2022-08-16T14:31:39.818Z,5.50
2022-08-16T14:36:42.805Z,5.07
2022-08-16T14:41:44.936Z,5.95
2022-08-16T14:46:46.589Z,5.60
2022-08-16T14:51:48.891Z,5.63
2022-08-16T14:56:55.244Z,5.22
2022-08-16T15:01:58.628Z,5.82
2022-08-16T15:07:01.413Z,5.93
2022-08-16T15:12:07.188Z,6.95
2022-08-16T15:17:33.985Z,6.53
2022-08-16T15:22:40.114Z,6.40
2022-08-16T15:27:42.258Z,6.88
2022-08-16T15:32:45.813Z,6.55
2022-08-16T15:37:48.377Z,6.63
2022-08-16T15:42:57.244Z,8.35
2022-08-16T15:47:59.095Z,7.47
2022-08-16T15:53:12.597Z,7.13
2022-08-16T15:58:35.710Z,6.97
2022-08-16T16:03:36.293Z,7.22
2022-08-16T16:08:39.035Z,7.78
2022-08-16T16:13:43.259Z,6.93
2022-08-16T16:18:48.984Z,6.40
2022-08-16T16:23:55.034Z,6.93
2022-08-16T16:29:08.167Z,6.93
2022-08-16T16:34:16.170Z,6.57
2022-08-16T16:39:17.835Z,7.10
2022-08-16T16:44:22.705Z,6.57
2022-08-16T16:49:41.847Z,6.43
2022-08-16T16:54:43.425Z,7.00
2022-08-16T16:59:48.599Z,6.80
2022-08-16T17:04:57.120Z,6.90
2022-08-16T17:09:59.293Z,6.57
2022-08-16T17:15:02.108Z,6.18
2022-08-16T17:20:04.747Z,6.93
2022-08-16T17:25:14.477Z,6.78
2022-08-16T17:30:19.811Z,6.30
2022-08-16T17:35:33.610Z,6.57
2022-08-16T17:40:40.734Z,6.53
2022-08-16T17:45:51.901Z,7.13
2022-08-16T17:50:54.767Z,6.80
2022-08-16T17:55:56.534Z,6.93
2022-08-16T18:00:59.739Z,7.15
2022-08-16T18:06:01.182Z,6.88
2022-08-16T18:11:02.680Z,8.23
2022-08-16T18:16:04.216Z,6.88
2022-08-16T18:21:24.187Z,6.60
2022-08-16T18:26:25.695Z,6.43
2022-08-16T18:31:27.304Z,7.13
2022-08-16T18:36:28.976Z,6.70
2022-08-16T18:41:30.560Z,6.90
2022-08-16T18:46:32.266Z,6.70
2022-08-16T18:51:34.112Z,6.82
2022-08-16T18:56:57.040Z,6.82
2022-08-16T19:02:00.253Z,7.60
2022-08-16T19:07:06.077Z,7.25
2022-08-16T19:12:07.766Z,7.22
2022-08-16T19:17:11.318Z,8.05
2022-08-16T19:22:12.809Z,8.13
2022-08-16T19:27:14.437Z,7.28
2022-08-16T19:32:24.277Z,7.45
2022-08-16T19:37:26.720Z,7.55
2022-08-16T19:42:28.904Z,8.02
2022-08-16T19:47:31.698Z,7.80
2022-08-16T19:52:34.076Z,8.13
2022-08-16T19:57:35.695Z,7.95
2022-08-16T20:02:45.315Z,8.40
2022-08-16T20:07:46.977Z,9.05
2022-08-16T20:13:02.208Z,9.77
2022-08-16T20:18:04.634Z,10.10
2022-08-16T20:23:25.794Z,10.03
2022-08-16T20:28:52.019Z,10.55
2022-08-16T20:33:48.931Z,10.05
2022-08-16T20:38:51.783Z,10.70
2022-08-16T20:43:55.139Z,10.85
2022-08-16T20:48:56.677Z,10.80
2022-08-16T20:53:58.126Z,10.73
2022-08-16T20:59:00.483Z,10.63
2022-08-16T21:04:01.967Z,9.55
2022-08-16T21:09:04.753Z,9.60
2022-08-16T21:14:10.859Z,10.82
2022-08-16T21:19:13.003Z,10.02
2022-08-16T21:24:14.495Z,9.93
2022-08-16T21:29:17.054Z,9.25
2022-08-16T21:34:18.645Z,9.00
2022-08-16T21:39:20.060Z,9.38
2022-08-16T21:44:21.505Z,9.52
2022-08-16T21:49:22.960Z,9.35
2022-08-16T21:54:24.432Z,9.43
2022-08-16T21:59:25.918Z,10.13
2022-08-16T22:04:37.139Z,9.95
2022-08-16T22:09:39.698Z,9.68
2022-08-16T22:14:41.266Z,9.00
2022-08-16T22:19:43.199Z,9.55
2022-08-16T22:24:44.733Z,9.70
2022-08-16T22:29:46.191Z,9.30
2022-08-16T22:34:48.601Z,8.80
2022-08-16T22:39:50.156Z,8.20
2022-08-16T22:44:52.532Z,9.40
2022-08-16T22:49:53.951Z,9.93
2022-08-16T22:54:55.454Z,8.88
2022-08-16T22:59:56.878Z,9.10
2022-08-16T23:04:58.339Z,8.95
2022-08-16T23:10:01.511Z,9.38
2022-08-16T23:15:04.680Z,8.63
2022-08-16T23:20:07.237Z,9.77
2022-08-16T23:25:13.747Z,10.18
2022-08-16T23:30:15.993Z,11.88
2022-08-16T23:35:19.108Z,12.40
2022-08-16T23:40:21.512Z,12.35
2022-08-16T23:45:24.302Z,12.02
2022-08-16T23:50:27.188Z,11.68
2022-08-16T23:55:31.130Z,12.15
